createdAt,value
2022-08-04T00:00:18.762Z,1002.42
2022-08-04T00:01:18.762Z,1002.42
2022-08-04T00:02:18.741Z,1002.37
2022-08-04T00:03:18.741Z,1002.33
2022-08-04T00:04:18.725Z,1002.45
2022-08-04T00:05:18.705Z,1002.41
2022-08-04T00:06:18.697Z,1002.42
2022-08-04T00:07:18.701Z,1002.32
2022-08-04T00:08:18.681Z,1002.42
2022-08-04T00:09:18.666Z,1002.35
2022-08-04T00:10:18.657Z,1002.39
2022-08-04T00:11:18.654Z,1002.37
2022-08-04T00:12:18.641Z,1002.43
2022-08-04T00:13:18.626Z,1002.38
2022-08-04T00:14:18.610Z,1002.35
2022-08-04T00:15:18.598Z,1002.36
2022-08-04T00:16:18.597Z,1002.41
2022-08-04T00:17:18.591Z,1002.41
2022-08-04T00:18:18.569Z,1002.35
2022-08-04T00:19:18.563Z,1002.38
2022-08-04T00:20:18.551Z,1002.4
2022-08-04T00:21:18.539Z,1002.36
2022-08-04T00:22:18.548Z,1002.35
2022-08-04T00:23:18.517Z,1002.36
2022-08-04T00:24:18.528Z,1002.32
2022-08-04T00:25:18.493Z,1002.34
2022-08-04T00:26:18.484Z,1002.4
2022-08-04T00:27:18.476Z,1002.35
2022-08-04T00:28:18.474Z,1002.36
2022-08-04T00:29:18.471Z,1002.36
2022-08-04T00:30:18.442Z,1002.42
2022-08-04T00:31:18.431Z,1002.41
2022-08-04T00:32:18.433Z,1002.42
2022-08-04T00:33:18.409Z,1002.4
2022-08-04T00:34:18.399Z,1002.47
2022-08-04T00:35:18.386Z,1002.45
2022-08-04T00:36:18.376Z,1002.42
2022-08-04T00:37:18.411Z,1002.44
2022-08-04T00:38:18.358Z,1002.4
2022-08-04T00:39:18.356Z,1002.37
2022-08-04T00:40:18.348Z,1002.38
2022-08-04T00:41:18.348Z,1002.41
2022-08-04T00:42:18.316Z,1002.41
2022-08-04T00:43:18.312Z,1002.39
2022-08-04T00:44:18.294Z,1002.43
2022-08-04T00:45:18.279Z,1002.4
2022-08-04T00:46:18.267Z,1002.42
2022-08-04T00:47:18.273Z,1002.38
2022-08-04T00:48:18.247Z,1002.4
2022-08-04T00:49:18.239Z,1002.41
2022-08-04T00:50:18.225Z,1002.38
2022-08-04T00:51:18.216Z,1002.4
2022-08-04T00:52:18.209Z,1002.37
2022-08-04T00:53:18.208Z,1002.38
2022-08-04T00:54:18.191Z,1002.44
2022-08-04T00:55:18.176Z,1002.42
2022-08-04T00:56:18.163Z,1002.47
2022-08-04T00:57:18.153Z,1002.39
2022-08-04T00:58:18.145Z,1002.45
2022-08-04T00:59:18.140Z,1002.38
2022-08-04T01:00:18.127Z,1002.44
2022-08-04T01:01:18.117Z,1002.39
2022-08-04T01:02:18.101Z,1002.34
2022-08-04T01:03:18.089Z,1002.32
2022-08-04T01:04:18.081Z,1002.38
2022-08-04T01:05:18.063Z,1002.36
2022-08-04T01:06:18.057Z,1002.3
2022-08-04T01:07:18.047Z,1002.38
2022-08-04T01:08:18.047Z,1002.36
2022-08-04T01:09:18.024Z,1002.35
2022-08-04T01:10:18.021Z,1002.37
2022-08-04T01:11:18.007Z,1002.31
2022-08-04T01:12:17.994Z,1002.3
2022-08-04T01:13:17.993Z,1002.34
2022-08-04T01:14:17.979Z,1002.36
2022-08-04T01:15:17.967Z,1002.32
2022-08-04T01:16:17.966Z,1002.27
2022-08-04T01:17:17.936Z,1002.3
2022-08-04T01:18:17.927Z,1002.31
2022-08-04T01:19:17.935Z,1002.26
2022-08-04T01:20:17.917Z,1002.31
2022-08-04T01:21:17.907Z,1002.33
2022-08-04T01:22:17.887Z,1002.32
2022-08-04T01:23:17.882Z,1002.32
2022-08-04T01:24:17.870Z,1002.32
2022-08-04T01:25:17.858Z,1002.28
2022-08-04T01:26:17.842Z,1002.29
2022-08-04T01:27:17.833Z,1002.27
2022-08-04T01:28:17.829Z,1002.29
2022-08-04T01:29:17.813Z,1002.3
2022-08-04T01:30:17.799Z,1002.25
2022-08-04T01:31:17.792Z,1002.29
2022-08-04T01:32:17.781Z,1002.24
2022-08-04T01:33:17.780Z,1002.26
2022-08-04T01:34:17.761Z,1002.25
2022-08-04T01:35:17.753Z,1002.21
2022-08-04T01:36:17.741Z,1002.32
2022-08-04T01:37:17.729Z,1002.33
2022-08-04T01:38:17.719Z,1002.3
2022-08-04T01:39:17.708Z,1002.34
2022-08-04T01:40:17.698Z,1002.31
2022-08-04T01:41:17.695Z,1002.32
2022-08-04T01:42:17.675Z,1002.31
2022-08-04T01:43:17.660Z,1002.26
2022-08-04T01:44:17.654Z,1002.29
2022-08-04T01:45:17.652Z,1002.26
2022-08-04T01:46:17.626Z,1002.23
2022-08-04T01:47:17.626Z,1002.26
2022-08-04T01:48:17.611Z,1002.28
2022-08-04T01:49:17.596Z,1002.25
2022-08-04T01:50:17.589Z,1002.27
2022-08-04T01:51:17.574Z,1002.3
2022-08-04T01:52:17.574Z,1002.21
2022-08-04T01:53:17.560Z,1002.23
2022-08-04T01:54:17.566Z,1002.2
2022-08-04T01:55:17.538Z,1002.19
2022-08-04T01:56:17.521Z,1002.2
2022-08-04T01:57:17.510Z,1002.19
2022-08-04T01:58:17.503Z,1002.21
2022-08-04T01:59:17.490Z,1002.15
2022-08-04T02:00:17.491Z,1002.18
2022-08-04T02:01:17.481Z,1002.11
2022-08-04T02:02:17.467Z,1002.11
2022-08-04T02:03:17.459Z,1002.15
2022-08-04T02:04:17.435Z,1002.08
2022-08-04T02:05:17.431Z,1002.11
2022-08-04T02:06:17.411Z,1002.11
2022-08-04T02:07:17.409Z,1002.08
2022-08-04T02:08:17.394Z,1002.05
2022-08-04T02:09:17.380Z,1002.04
2022-08-04T02:10:17.390Z,1002.04
2022-08-04T02:11:17.365Z,1001.98
2022-08-04T02:12:17.353Z,1002
2022-08-04T02:13:17.339Z,1001.99
2022-08-04T02:14:17.325Z,1002.05
2022-08-04T02:15:17.323Z,1001.96
2022-08-04T02:16:17.303Z,1002.02
2022-08-04T02:17:17.297Z,1001.93
2022-08-04T02:18:17.288Z,1001.96
2022-08-04T02:19:17.281Z,1001.94
2022-08-04T02:20:17.261Z,1001.99
2022-08-04T02:21:17.250Z,1001.97
2022-08-04T02:22:17.237Z,1001.94
2022-08-04T02:23:17.235Z,1001.96
2022-08-04T02:24:17.218Z,1001.9
2022-08-04T02:25:17.206Z,1001.88
2022-08-04T02:26:17.203Z,1001.87
2022-08-04T02:27:17.207Z,1001.89
2022-08-04T02:28:17.175Z,1001.86
2022-08-04T02:29:17.160Z,1001.92
2022-08-04T02:30:17.163Z,1001.9
2022-08-04T02:31:17.146Z,1001.92
2022-08-04T02:32:17.127Z,1001.91
2022-08-04T02:33:17.121Z,1001.9
2022-08-04T02:34:17.113Z,1001.87
2022-08-04T02:35:17.096Z,1001.84
2022-08-04T02:36:17.098Z,1001.85
2022-08-04T02:37:17.069Z,1001.91
2022-08-04T02:38:17.066Z,1001.89
2022-08-04T02:39:17.063Z,1001.83
2022-08-04T02:40:17.042Z,1001.85
2022-08-04T02:41:17.027Z,1001.85
2022-08-04T02:42:17.020Z,1001.8
2022-08-04T02:43:17.005Z,1001.81
2022-08-04T02:44:16.990Z,1001.81
2022-08-04T02:45:16.990Z,1001.85
2022-08-04T02:46:16.971Z,1001.78
2022-08-04T02:47:16.964Z,1001.83
2022-08-04T02:48:16.947Z,1001.85
2022-08-04T02:49:16.945Z,1001.82
2022-08-04T02:50:16.934Z,1001.79
2022-08-04T02:51:16.917Z,1001.79
2022-08-04T02:52:16.908Z,1001.76
2022-08-04T02:53:16.899Z,1001.75
2022-08-04T02:54:16.885Z,1001.81
2022-08-04T02:55:16.880Z,1001.74
2022-08-04T02:56:16.865Z,1001.74
2022-08-04T02:57:16.853Z,1001.76
2022-08-04T02:58:16.837Z,1001.74
2022-08-04T02:59:16.831Z,1001.71
2022-08-04T03:00:16.819Z,1001.72
2022-08-04T03:01:16.811Z,1001.77
2022-08-04T03:02:16.808Z,1001.67
2022-08-04T03:03:16.790Z,1001.67
2022-08-04T03:04:16.782Z,1001.68
2022-08-04T03:05:16.783Z,1001.64
2022-08-04T03:06:16.753Z,1001.66
2022-08-04T03:07:16.737Z,1001.6
2022-08-04T03:08:16.733Z,1001.55
2022-08-04T03:09:16.718Z,1001.63
2022-08-04T03:10:16.702Z,1001.61
2022-08-04T03:11:16.696Z,1001.62
2022-08-04T03:12:16.692Z,1001.59
2022-08-04T03:13:16.674Z,1001.62
2022-08-04T03:14:16.662Z,1001.58
2022-08-04T03:15:16.651Z,1001.6
2022-08-04T03:16:16.644Z,1001.59
2022-08-04T03:17:16.657Z,1001.61
2022-08-04T03:18:16.626Z,1001.58
2022-08-04T03:19:16.607Z,1001.59
2022-08-04T03:20:16.602Z,1001.59
2022-08-04T03:21:16.588Z,1001.51
2022-08-04T03:22:16.595Z,1001.52
2022-08-04T03:23:16.574Z,1001.52
2022-08-04T03:24:16.565Z,1001.55
2022-08-04T03:25:16.551Z,1001.51
2022-08-04T03:26:16.534Z,1001.55
2022-08-04T03:27:16.527Z,1001.47
2022-08-04T03:28:16.508Z,1001.49
2022-08-04T03:29:16.507Z,1001.53
2022-08-04T03:30:16.488Z,1001.56
2022-08-04T03:31:16.474Z,1001.54
2022-08-04T03:32:16.463Z,1001.48
2022-08-04T03:33:16.465Z,1001.58
2022-08-04T03:34:16.475Z,1001.47
2022-08-04T03:35:16.510Z,1001.46
2022-08-04T03:36:16.472Z,1001.42
2022-08-04T03:37:16.408Z,1001.43
2022-08-04T03:38:16.397Z,1001.42
2022-08-04T03:39:16.406Z,1001.47
2022-08-04T03:40:16.377Z,1001.44
2022-08-04T03:41:16.364Z,1001.45
2022-08-04T03:42:16.358Z,1001.48
2022-08-04T03:43:16.345Z,1001.43
2022-08-04T03:44:16.340Z,1001.44
2022-08-04T03:45:16.346Z,1001.42
2022-08-04T03:46:16.313Z,1001.43
2022-08-04T03:47:16.305Z,1001.4
2022-08-04T03:48:16.294Z,1001.39
2022-08-04T03:49:16.282Z,1001.42
2022-08-04T03:50:16.279Z,1001.35
2022-08-04T03:51:16.270Z,1001.36
2022-08-04T03:52:16.249Z,1001.4
2022-08-04T03:53:16.236Z,1001.33
2022-08-04T03:54:16.231Z,1001.36
2022-08-04T03:55:16.226Z,1001.46
2022-08-04T03:56:16.202Z,1001.43
2022-08-04T03:57:16.193Z,1001.37
2022-08-04T03:58:16.192Z,1001.36
2022-08-04T03:59:16.170Z,1001.39
2022-08-04T04:00:16.174Z,1001.32
2022-08-04T04:01:16.155Z,1001.37
2022-08-04T04:02:16.143Z,1001.32
2022-08-04T04:03:16.129Z,1001.34
2022-08-04T04:04:16.116Z,1001.3
2022-08-04T04:05:16.117Z,1001.36
2022-08-04T04:06:16.103Z,1001.36
2022-08-04T04:07:16.112Z,1001.37
2022-08-04T04:08:16.079Z,1001.37
2022-08-04T04:09:16.079Z,1001.36
2022-08-04T04:10:16.060Z,1001.32
2022-08-04T04:11:16.054Z,1001.33
2022-08-04T04:12:16.036Z,1001.32
2022-08-04T04:13:16.032Z,1001.32
2022-08-04T04:14:16.021Z,1001.36
2022-08-04T04:15:16.008Z,1001.41
2022-08-04T04:16:15.996Z,1001.42
2022-08-04T04:17:15.985Z,1001.35
2022-08-04T04:18:15.976Z,1001.32
2022-08-04T04:19:15.960Z,1001.38
2022-08-04T04:20:15.961Z,1001.33
2022-08-04T04:21:15.951Z,1001.31
2022-08-04T04:22:15.935Z,1001.34
2022-08-04T04:23:16.113Z,1001.31
2022-08-04T04:24:15.909Z,1001.36
2022-08-04T04:25:15.903Z,1001.39
2022-08-04T04:26:15.888Z,1001.34
2022-08-04T04:27:15.885Z,1001.32
2022-08-04T04:28:15.868Z,1001.35
2022-08-04T04:29:15.858Z,1001.33
2022-08-04T04:30:15.851Z,1001.3
2022-08-04T04:31:15.834Z,1001.33
2022-08-04T04:32:15.829Z,1001.29
2022-08-04T04:33:15.818Z,1001.33
2022-08-04T04:34:15.804Z,1001.34
2022-08-04T04:35:15.793Z,1001.3
2022-08-04T04:36:15.794Z,1001.31
2022-08-04T04:37:15.800Z,1001.27
2022-08-04T04:38:15.764Z,1001.24
2022-08-04T04:39:15.756Z,1001.27
2022-08-04T04:40:15.742Z,1001.27
2022-08-04T04:41:15.728Z,1001.27
2022-08-04T04:42:15.717Z,1001.22
2022-08-04T04:43:15.703Z,1001.3
2022-08-04T04:44:15.708Z,1001.3
2022-08-04T04:45:15.689Z,1001.29
2022-08-04T04:46:15.684Z,1001.27
2022-08-04T04:47:15.669Z,1001.27
2022-08-04T04:48:15.684Z,1001.28
2022-08-04T04:49:15.661Z,1001.37
2022-08-04T04:50:15.631Z,1001.29
2022-08-04T04:51:15.624Z,1001.32
2022-08-04T04:52:15.621Z,1001.32
2022-08-04T04:53:15.603Z,1001.29
2022-08-04T04:54:15.592Z,1001.3
2022-08-04T04:55:15.584Z,1001.28
2022-08-04T04:56:15.592Z,1001.33
2022-08-04T04:57:15.558Z,1001.27
2022-08-04T04:58:15.553Z,1001.29
2022-08-04T04:59:15.538Z,1001.17
2022-08-04T05:00:15.524Z,1001.23
2022-08-04T05:01:15.519Z,1001.25
2022-08-04T05:02:15.510Z,1001.22
2022-08-04T05:03:15.489Z,1001.21
2022-08-04T05:04:15.477Z,1001.23
2022-08-04T05:05:15.477Z,1001.19
2022-08-04T05:06:15.497Z,1001.2
2022-08-04T05:07:15.452Z,1001.15
2022-08-04T05:08:15.452Z,1001.23
2022-08-04T05:09:15.430Z,1001.19
2022-08-04T05:10:15.428Z,1001.16
2022-08-04T05:11:15.417Z,1001.21
2022-08-04T05:12:15.392Z,1001.19
2022-08-04T05:13:15.386Z,1001.23
2022-08-04T05:14:15.377Z,1001.19
2022-08-04T05:15:15.362Z,1001.22
2022-08-04T05:16:15.357Z,1001.21
2022-08-04T05:17:15.341Z,1001.22
2022-08-04T05:18:15.338Z,1001.17
2022-08-04T05:19:15.323Z,1001.18
2022-08-04T05:20:15.309Z,1001.12
2022-08-04T05:21:15.308Z,1001.19
2022-08-04T05:22:15.286Z,1001.21
2022-08-04T05:23:15.296Z,1001.21
2022-08-04T05:24:15.256Z,1001.24
2022-08-04T05:25:15.259Z,1001.18
2022-08-04T05:26:15.245Z,1001.2
2022-08-04T05:27:15.230Z,1001.2
2022-08-04T05:28:15.236Z,1001.22
2022-08-04T05:29:15.203Z,1001.19
2022-08-04T05:30:15.192Z,1001.17
2022-08-04T05:31:15.185Z,1001.17
2022-08-04T05:32:15.171Z,1001.22
2022-08-04T05:33:15.182Z,1001.15
2022-08-04T05:34:15.156Z,1001.12
2022-08-04T05:35:15.135Z,1001.16
2022-08-04T05:36:15.131Z,1001.13
2022-08-04T05:37:15.119Z,1001.05
2022-08-04T05:38:15.105Z,1001.03
2022-08-04T05:39:15.102Z,1001.06
2022-08-04T05:40:15.096Z,1001.06
2022-08-04T05:41:15.078Z,1001
2022-08-04T05:42:15.068Z,1001.06
2022-08-04T05:43:15.057Z,1001.08
2022-08-04T05:44:15.042Z,1001.04
2022-08-04T05:45:15.033Z,1001.01
2022-08-04T05:46:15.018Z,1001.04
2022-08-04T05:47:15.016Z,1000.97
2022-08-04T05:48:15.000Z,1000.96
2022-08-04T05:49:14.990Z,1000.96
2022-08-04T05:50:14.976Z,1001
2022-08-04T05:51:14.967Z,1000.98
2022-08-04T05:52:14.973Z,1000.98
2022-08-04T05:53:14.958Z,1001.01
2022-08-04T05:54:14.935Z,1000.98
2022-08-04T05:55:14.926Z,1001.03
2022-08-04T05:56:14.969Z,1001.01
2022-08-04T05:57:14.903Z,1001.04
2022-08-04T05:58:14.890Z,1001
2022-08-04T05:59:14.883Z,1001.06
2022-08-04T06:00:14.871Z,1001.01
2022-08-04T06:01:14.865Z,1000.96
2022-08-04T06:02:14.854Z,1001.01
2022-08-04T06:03:14.846Z,1000.87
2022-08-04T06:04:14.830Z,1000.88
2022-08-04T06:05:14.825Z,1000.9
2022-08-04T06:06:14.818Z,1000.87
2022-08-04T06:07:14.802Z,1000.89
2022-08-04T06:08:14.802Z,1000.81
2022-08-04T06:09:14.783Z,1000.9
2022-08-04T06:10:14.765Z,1000.88
2022-08-04T06:11:14.757Z,1000.9
2022-08-04T06:12:14.754Z,1000.87
2022-08-04T06:13:14.746Z,1000.86
2022-08-04T06:14:14.719Z,1000.83
2022-08-04T06:15:14.712Z,1000.86
2022-08-04T06:16:14.701Z,1000.83
2022-08-04T06:17:14.689Z,1000.87
2022-08-04T06:18:14.681Z,1000.88
2022-08-04T06:19:14.678Z,1000.8
2022-08-04T06:20:14.676Z,1000.84
2022-08-04T06:21:14.650Z,1000.83
2022-08-04T06:22:14.642Z,1000.79
2022-08-04T06:23:14.650Z,1000.8
2022-08-04T06:24:14.640Z,1000.81
2022-08-04T06:25:14.615Z,1000.83
2022-08-04T06:26:14.593Z,1000.83
2022-08-04T06:27:14.582Z,1000.83
2022-08-04T06:28:14.582Z,1000.85
2022-08-04T06:29:14.560Z,1000.85
2022-08-04T06:30:14.571Z,1000.82
2022-08-04T06:31:14.540Z,1000.81
2022-08-04T06:32:14.529Z,1000.84
2022-08-04T06:33:14.529Z,1000.81
2022-08-04T06:34:14.508Z,1000.86
2022-08-04T06:35:14.499Z,1000.82
2022-08-04T06:36:14.488Z,1000.82
2022-08-04T06:37:14.473Z,1000.72
2022-08-04T06:38:14.464Z,1000.79
2022-08-04T06:39:14.475Z,1000.84
2022-08-04T06:40:14.465Z,1000.77
2022-08-04T06:41:14.435Z,1000.71
2022-08-04T06:42:14.426Z,1000.77
2022-08-04T06:43:14.427Z,1000.77
2022-08-04T06:44:14.709Z,1000.77
2022-08-04T06:45:14.393Z,1000.77
2022-08-04T06:46:14.397Z,1000.76
2022-08-04T06:47:14.385Z,1000.78
2022-08-04T06:48:14.362Z,1000.76
2022-08-04T06:49:14.348Z,1000.8
2022-08-04T06:50:14.357Z,1000.82
2022-08-04T06:51:14.332Z,1000.78
2022-08-04T06:52:14.335Z,1000.82
2022-08-04T06:53:14.318Z,1000.79
2022-08-04T06:54:14.337Z,1000.74
2022-08-04T06:55:14.297Z,1000.78
2022-08-04T06:56:14.287Z,1000.75
2022-08-04T06:57:14.263Z,1000.76
2022-08-04T06:58:14.258Z,1000.77
2022-08-04T06:59:14.278Z,1000.74
2022-08-04T07:00:14.247Z,1000.73
2022-08-04T07:01:14.221Z,1000.71
2022-08-04T07:02:14.214Z,1000.79
2022-08-04T07:03:14.215Z,1000.74
2022-08-04T07:04:14.200Z,1000.7
2022-08-04T07:05:14.175Z,1000.75
2022-08-04T07:06:14.167Z,1000.7
2022-08-04T07:07:14.174Z,1000.74
2022-08-04T07:08:14.146Z,1000.73
2022-08-04T07:09:14.135Z,1000.73
2022-08-04T07:10:14.133Z,1000.72
2022-08-04T07:11:14.117Z,1000.71
2022-08-04T07:12:14.106Z,1000.69
2022-08-04T07:13:14.126Z,1000.7
2022-08-04T07:14:14.083Z,1000.66
2022-08-04T07:15:14.071Z,1000.67
2022-08-04T07:16:14.070Z,1000.62
2022-08-04T07:17:14.050Z,1000.69
2022-08-04T07:18:14.039Z,1000.73
2022-08-04T07:19:14.042Z,1000.62
2022-08-04T07:20:14.022Z,1000.62
2022-08-04T07:21:14.009Z,1000.68
2022-08-04T07:22:14.005Z,1000.61
2022-08-04T07:23:14.006Z,1000.62
2022-08-04T07:24:13.979Z,1000.6
2022-08-04T07:25:13.964Z,1000.66
2022-08-04T07:26:13.963Z,1000.62
2022-08-04T07:27:13.947Z,1000.62
2022-08-04T07:28:13.934Z,1000.6
2022-08-04T07:29:13.922Z,1000.62
2022-08-04T07:30:13.916Z,1000.59
2022-08-04T07:31:13.920Z,1000.6
2022-08-04T07:32:13.901Z,1000.59
2022-08-04T07:33:13.880Z,1000.67
2022-08-04T07:34:13.869Z,1000.59
2022-08-04T07:35:13.861Z,1000.58
2022-08-04T07:36:13.849Z,1000.62
2022-08-04T07:37:13.864Z,1000.66
2022-08-04T07:38:13.839Z,1000.66
2022-08-04T07:39:13.829Z,1000.65
2022-08-04T07:40:13.816Z,1000.59
2022-08-04T07:41:13.824Z,1000.63
2022-08-04T07:42:13.782Z,1000.62
2022-08-04T07:43:13.777Z,1000.58
2022-08-04T07:44:13.762Z,1000.54
2022-08-04T07:45:15.743Z,1000.55
2022-08-04T07:46:13.750Z,1000.49
2022-08-04T07:47:13.754Z,1000.56
2022-08-04T07:48:13.721Z,1000.47
2022-08-04T07:49:13.712Z,1000.58
2022-08-04T07:50:13.699Z,1000.61
2022-08-04T07:51:13.699Z,1000.59
2022-08-04T07:52:13.703Z,1000.61
2022-08-04T07:53:13.681Z,1000.61
2022-08-04T07:54:13.658Z,1000.56
2022-08-04T07:55:13.646Z,1000.63
2022-08-04T07:56:13.659Z,1000.66
2022-08-04T07:57:13.651Z,1000.58
2022-08-04T07:58:13.645Z,1000.67
2022-08-04T07:59:13.607Z,1000.67
2022-08-04T08:00:13.599Z,1000.68
2022-08-04T08:01:13.601Z,1000.66
2022-08-04T08:02:13.575Z,1000.61
2022-08-04T08:03:13.581Z,1000.68
2022-08-04T08:04:13.556Z,1000.68
2022-08-04T08:05:13.542Z,1000.66
2022-08-04T08:06:13.553Z,1000.69
2022-08-04T08:07:13.521Z,1000.56
2022-08-04T08:08:13.528Z,1000.59
2022-08-04T08:09:13.507Z,1000.6
2022-08-04T08:10:13.489Z,1000.62
2022-08-04T08:11:13.478Z,1000.68
2022-08-04T08:12:13.547Z,1000.65
2022-08-04T08:13:13.466Z,1000.63
2022-08-04T08:14:13.443Z,1000.58
2022-08-04T08:15:13.458Z,1000.61
2022-08-04T08:16:13.425Z,1000.6
2022-08-04T08:17:13.412Z,1000.58
2022-08-04T08:18:13.417Z,1000.51
2022-08-04T08:19:13.394Z,1000.54
2022-08-04T08:20:13.377Z,1000.51
2022-08-04T08:21:13.382Z,1000.51
2022-08-04T08:22:13.364Z,1000.55
2022-08-04T08:23:13.349Z,1000.56
2022-08-04T08:24:13.378Z,1000.49
2022-08-04T08:25:13.328Z,1000.58
2022-08-04T08:26:13.321Z,1000.45
2022-08-04T08:27:13.305Z,1000.42
2022-08-04T08:28:13.305Z,1000.39
2022-08-04T08:29:13.295Z,1000.42
2022-08-04T08:30:13.283Z,1000.42
2022-08-04T08:31:13.266Z,1000.39
2022-08-04T08:32:13.265Z,1000.46
2022-08-04T08:33:13.242Z,1000.46
2022-08-04T08:34:13.233Z,1000.43
2022-08-04T08:35:13.228Z,1000.39
2022-08-04T08:36:13.238Z,1000.4
2022-08-04T08:37:13.211Z,1000.37
2022-08-04T08:38:13.197Z,1000.45
2022-08-04T08:39:13.203Z,1000.4
2022-08-04T08:40:13.180Z,1000.37
2022-08-04T08:41:13.173Z,1000.42
2022-08-04T08:42:13.158Z,1000.39
2022-08-04T08:43:13.146Z,1000.37
2022-08-04T08:44:13.143Z,1000.35
2022-08-04T08:45:13.182Z,1000.4
2022-08-04T08:46:13.137Z,1000.32
2022-08-04T08:47:13.100Z,1000.38
2022-08-04T08:48:13.098Z,1000.35
2022-08-04T08:49:13.085Z,1000.43
2022-08-04T08:50:13.077Z,1000.29
2022-08-04T08:51:13.068Z,1000.38
2022-08-04T08:52:13.060Z,1000.33
2022-08-04T08:53:13.054Z,1000.36
2022-08-04T08:54:13.050Z,1000.35
2022-08-04T08:55:13.053Z,1000.35
2022-08-04T08:56:13.011Z,1000.37
2022-08-04T08:57:13.003Z,1000.42
2022-08-04T08:58:13.017Z,1000.4
2022-08-04T08:59:13.009Z,1000.34
2022-08-04T09:00:12.967Z,1000.36
2022-08-04T09:01:12.959Z,1000.34
2022-08-04T09:02:12.948Z,1000.4
2022-08-04T09:03:12.936Z,1000.39
2022-08-04T09:04:12.934Z,1000.41
2022-08-04T09:05:12.923Z,1000.4
2022-08-04T09:06:12.910Z,1000.35
2022-08-04T09:07:12.907Z,1000.37
2022-08-04T09:08:12.903Z,1000.32
2022-08-04T09:09:12.872Z,1000.31
2022-08-04T09:10:12.881Z,1000.3
2022-08-04T09:11:12.877Z,1000.31
2022-08-04T09:12:12.848Z,1000.34
2022-08-04T09:13:12.841Z,1000.33
2022-08-04T09:14:12.836Z,1000.28
2022-08-04T09:15:12.838Z,1000.21
2022-08-04T09:16:12.817Z,1000.2
2022-08-04T09:17:12.801Z,1000.19
2022-08-04T09:18:12.788Z,1000.35
2022-08-04T09:19:12.769Z,1000.35
2022-08-04T09:20:12.802Z,1000.28
2022-08-04T09:21:12.753Z,1000.31
2022-08-04T09:22:12.748Z,1000.4
2022-08-04T09:23:12.750Z,1000.27
2022-08-04T09:24:12.806Z,1000.24
2022-08-04T09:25:12.718Z,1000.3
2022-08-04T09:26:12.699Z,1000.21
2022-08-04T09:27:12.692Z,1000.3
2022-08-04T09:28:12.680Z,1000.3
2022-08-04T09:29:12.671Z,1000.26
2022-08-04T09:30:12.656Z,1000.33
2022-08-04T09:31:12.668Z,1000.27
2022-08-04T09:32:12.639Z,1000.3
2022-08-04T09:33:12.631Z,1000.26
2022-08-04T09:34:12.624Z,1000.28
2022-08-04T09:35:12.627Z,1000.26
2022-08-04T09:36:12.610Z,1000.27
2022-08-04T09:37:12.606Z,1000.3
2022-08-04T09:38:12.583Z,1000.26
2022-08-04T09:39:12.568Z,1000.31
2022-08-04T09:40:12.581Z,1000.23
2022-08-04T09:41:12.586Z,1000.32
2022-08-04T09:42:12.536Z,1000.31
2022-08-04T09:43:12.531Z,1000.25
2022-08-04T09:44:12.523Z,1000.29
2022-08-04T09:45:12.500Z,1000.3
2022-08-04T09:46:12.502Z,1000.21
2022-08-04T09:47:12.484Z,1000.19
2022-08-04T09:48:12.471Z,1000.19
2022-08-04T09:49:12.466Z,1000.21
2022-08-04T09:50:12.458Z,1000.21
2022-08-04T09:51:12.441Z,1000.18
2022-08-04T09:52:12.430Z,1000.15
2022-08-04T09:53:12.434Z,1000.2
2022-08-04T09:54:12.413Z,1000.17
2022-08-04T09:55:12.407Z,1000.23
2022-08-04T09:56:12.392Z,1000.15
2022-08-04T09:57:12.375Z,1000.15
2022-08-04T09:58:12.372Z,1000.15
2022-08-04T09:59:12.368Z,1000.17
2022-08-04T10:00:12.361Z,1000.19
2022-08-04T10:01:12.361Z,1000.21
2022-08-04T10:02:12.333Z,1000.22
2022-08-04T10:03:12.321Z,1000.18
2022-08-04T10:04:12.315Z,1000.13
2022-08-04T10:05:12.309Z,1000.13
2022-08-04T10:06:12.289Z,1000.13
2022-08-04T10:07:12.281Z,1000.08
2022-08-04T10:08:12.268Z,1000.04
2022-08-04T10:09:12.275Z,1000.22
2022-08-04T10:10:12.249Z,1000.19
2022-08-04T10:11:12.246Z,1000.16
2022-08-04T10:12:12.227Z,1000.21
2022-08-04T10:13:12.235Z,1000.15
2022-08-04T10:14:12.215Z,1000.2
2022-08-04T10:15:12.585Z,1000.21
2022-08-04T10:16:12.188Z,1000.14
2022-08-04T10:17:12.198Z,1000.13
2022-08-04T10:18:12.204Z,1000.12
2022-08-04T10:19:12.199Z,1000.11
2022-08-04T10:20:12.185Z,1000.15
2022-08-04T10:21:12.198Z,1000.13
2022-08-04T10:22:13.148Z,1000.12
2022-08-04T10:23:12.119Z,1000.08
2022-08-04T10:24:12.133Z,1000.12
2022-08-04T10:25:12.101Z,1000.13
2022-08-04T10:26:12.088Z,1000.1
2022-08-04T10:27:12.091Z,1000.06
2022-08-04T10:28:12.108Z,1000.1
2022-08-04T10:29:12.062Z,1000.12
2022-08-04T10:30:12.061Z,1000.12
2022-08-04T10:31:12.041Z,1000.1
2022-08-04T10:32:12.029Z,1000.15
2022-08-04T10:33:12.029Z,1000.1
2022-08-04T10:34:12.052Z,1000.13
2022-08-04T10:35:11.998Z,1000.14
2022-08-04T10:36:12.015Z,1000.13
2022-08-04T10:37:11.981Z,1000.06
2022-08-04T10:38:11.969Z,1000.05
2022-08-04T10:39:11.960Z,1000.09
2022-08-04T10:40:11.954Z,1000.04
2022-08-04T10:41:11.936Z,1000.14
2022-08-04T10:42:12.046Z,1000.13
2022-08-04T10:43:11.932Z,1000.13
2022-08-04T10:44:11.924Z,1000.08
2022-08-04T10:45:11.905Z,1000.06
2022-08-04T10:46:11.881Z,1000.01
2022-08-04T10:47:11.909Z,1000.07
2022-08-04T10:48:11.889Z,1000.01
2022-08-04T10:49:11.857Z,1000.05
2022-08-04T10:50:11.850Z,1000
2022-08-04T10:51:11.839Z,1000
2022-08-04T10:52:11.825Z,999.97
2022-08-04T10:53:11.819Z,999.92
2022-08-04T10:54:11.815Z,999.92
2022-08-04T10:55:11.792Z,999.96
2022-08-04T10:56:11.789Z,999.98
2022-08-04T10:57:11.781Z,999.94
2022-08-04T10:58:11.768Z,999.95
2022-08-04T10:59:11.753Z,1000.04
2022-08-04T11:00:11.753Z,999.94
2022-08-04T11:01:11.793Z,1000
2022-08-04T11:02:11.726Z,999.97
2022-08-04T11:03:11.738Z,999.99
2022-08-04T11:04:11.712Z,1000.03
2022-08-04T11:05:11.700Z,1000.01
2022-08-04T11:06:11.697Z,1000.01
2022-08-04T11:07:11.683Z,1000.05
2022-08-04T11:08:11.681Z,999.9
2022-08-04T11:09:11.658Z,999.94
2022-08-04T11:10:11.652Z,999.97
2022-08-04T11:11:11.642Z,1000
2022-08-04T11:12:11.645Z,999.9
2022-08-04T11:13:11.626Z,1000.01
2022-08-04T11:14:11.724Z,999.9
2022-08-04T11:15:11.601Z,999.9
2022-08-04T11:16:11.611Z,999.9
2022-08-04T11:17:11.587Z,999.98
2022-08-04T11:18:11.633Z,1000.04
2022-08-04T11:19:11.573Z,999.87
2022-08-04T11:20:11.554Z,999.93
2022-08-04T11:21:11.538Z,999.94
2022-08-04T11:22:11.529Z,999.92
2022-08-04T11:23:11.522Z,999.93
2022-08-04T11:24:11.513Z,999.85
2022-08-04T11:25:11.497Z,999.92
2022-08-04T11:26:11.511Z,999.89
2022-08-04T11:27:11.478Z,999.86
2022-08-04T11:28:11.475Z,999.82
2022-08-04T11:29:11.487Z,999.85
2022-08-04T11:30:11.449Z,999.88
2022-08-04T11:31:11.441Z,999.86
2022-08-04T11:32:11.430Z,999.87
2022-08-04T11:33:11.430Z,999.78
2022-08-04T11:34:11.419Z,999.85
2022-08-04T11:35:11.402Z,999.91
2022-08-04T11:36:11.399Z,999.88
2022-08-04T11:37:11.391Z,999.84
2022-08-04T11:38:11.384Z,999.9
2022-08-04T11:39:11.362Z,999.92
2022-08-04T11:40:11.361Z,999.91
2022-08-04T11:41:11.346Z,999.93
2022-08-04T11:42:11.344Z,999.93
2022-08-04T11:43:11.330Z,999.94
2022-08-04T11:44:11.322Z,999.91
2022-08-04T11:45:11.317Z,999.89
2022-08-04T11:46:11.300Z,999.92
2022-08-04T11:47:11.290Z,999.92
2022-08-04T11:48:11.291Z,999.92
2022-08-04T11:49:11.288Z,999.9
2022-08-04T11:50:11.258Z,1000.01
2022-08-04T11:51:11.269Z,999.9
2022-08-04T11:52:11.260Z,999.99
2022-08-04T11:53:11.239Z,1000.01
2022-08-04T11:54:11.229Z,999.93
2022-08-04T11:55:11.220Z,999.98
2022-08-04T11:56:11.202Z,999.99
2022-08-04T11:57:11.201Z,999.98
2022-08-04T11:58:11.180Z,999.89
2022-08-04T11:59:11.187Z,999.92
2022-08-04T12:00:11.173Z,999.94
2022-08-04T12:01:11.157Z,1000
2022-08-04T12:02:11.142Z,1000.04
2022-08-04T12:03:11.146Z,999.95
2022-08-04T12:04:11.132Z,999.99
2022-08-04T12:05:11.122Z,999.97
2022-08-04T12:06:11.109Z,1000.01
2022-08-04T12:07:11.120Z,1000.01
2022-08-04T12:08:11.112Z,1000
2022-08-04T12:09:11.113Z,1000.01
2022-08-04T12:10:11.090Z,999.98